Time;durP1;ratioP1;P1;durP2;ratioP2;P2;SDS_P1;SDS_P2;PMS_P1;PMS_P2;Temp;Humidity;BMP_temperature;BMP_pressure;BME280_temperature;BME280_humidity;BME280_pressure;Samples;Min_cycle;Max_cycle;Signal;HPM_P1;HPM_P2
2022/09/10 00:01:20;;;;;;;;;;;19.10;96.70;;;;;;5070062;28;19919;-73
2022/09/10 00:03:48;;;;;;;;;;;19.10;96.90;;;;;;5070834;28;19994;-72
2022/09/10 00:06:17;;;;;;;;;;;19.10;96.90;;;;;;5070552;28;19988;-72
2022/09/10 00:08:44;;;;;;;;;;;19.10;96.70;;;;;;5070120;28;20058;-70
2022/09/10 00:11:11;;;;;;;;;;;19.10;96.10;;;;;;5069904;28;19912;-70
2022/09/10 00:13:39;;;;;;;;;;;19.20;95.60;;;;;;5070023;28;20400;-70
2022/09/10 00:16:07;;;;;;;;;;;19.30;95.90;;;;;;5069498;28;20280;-71
2022/09/10 00:18:34;;;;;;;;;;;19.30;95.00;;;;;;5069554;28;19921;-69
2022/09/10 00:21:03;;;;;;;;;;;19.40;95.00;;;;;;5070125;28;19971;-70
2022/09/10 00:23:30;;;;;;;;;;;19.50;94.90;;;;;;5061014;28;19913;-72
2022/09/10 00:25:57;;;;;;;;;;;19.50;94.60;;;;;;5070042;28;19908;-71
2022/09/10 00:28:25;;;;;;;;;;;19.50;94.90;;;;;;5074152;28;19916;-72
2022/09/10 00:30:53;;;;;;;;;;;19.60;94.30;;;;;;5073319;28;19939;-72
2022/09/10 00:33:20;;;;;;;;;;;19.60;94.40;;;;;;5073391;28;19947;-73
2022/09/10 00:35:47;;;;;;;;;;;19.70;93.10;;;;;;5065112;28;19960;-71
2022/09/10 00:38:17;;;;;;;;;;;19.80;92.40;;;;;;5053714;28;19912;-72
2022/09/10 00:40:43;;;;;;;;;;;19.80;92.60;;;;;;5065019;28;19913;-72
2022/09/10 00:43:14;;;;;;;;;;;19.90;92.40;;;;;;5073986;28;20376;-71
2022/09/10 00:45:42;;;;;;;;;;;19.90;92.70;;;;;;5073473;28;19991;-71
2022/09/10 00:48:17;;;;;;;;;;;20.10;92.80;;;;;;5073404;28;19942;-71
2022/09/10 00:50:45;;;;;;;;;;;20.30;92.20;;;;;;5073128;28;19965;-71
2022/09/10 00:53:14;;;;;;;;;;;20.40;92.10;;;;;;5073771;28;19966;-72
2022/09/10 00:55:43;;;;;;;;;;;20.70;92.40;;;;;;5073146;28;19917;-71
2022/09/10 00:58:11;;;;;;;;;;;20.90;91.00;;;;;;5072983;28;19913;-71
2022/09/10 01:00:40;;;;;;;;;;;21.00;91.40;;;;;;5073130;28;19918;-72
2022/09/10 01:03:10;;;;;;;;;;;21.00;91.60;;;;;;5073663;28;19912;-72
2022/09/10 01:05:37;;;;;;;;;;;21.10;91.50;;;;;;5073498;28;19909;-72
2022/09/10 01:08:04;;;;;;;;;;;21.20;91.80;;;;;;5072450;28;19973;-70
2022/09/10 01:10:34;;;;;;;;;;;21.20;90.80;;;;;;5072587;28;20368;-73
2022/09/10 01:13:08;;;;;;;;;;;21.20;90.60;;;;;;5073296;28;19917;-72
2022/09/10 01:15:42;;;;;;;;;;;21.20;90.80;;;;;;5073260;28;19947;-71
2022/09/10 01:18:17;;;;;;;;;;;21.20;91.10;;;;;;5072903;28;20028;-71
2022/09/10 01:20:47;;;;;;;;;;;21.30;90.40;;;;;;5072778;28;19913;-72
2022/09/10 01:23:16;;;;;;;;;;;21.30;90.50;;;;;;5073275;28;19954;-74
2022/09/10 01:25:53;;;;;;;;;;;21.30;90.30;;;;;;5073299;28;20051;-72
2022/09/10 01:28:31;;;;;;;;;;;21.40;90.40;;;;;;5072292;28;19932;-74
2022/09/10 01:31:04;;;;;;;;;;;21.50;90.40;;;;;;5072801;28;19983;-72
2022/09/10 01:33:36;;;;;;;;;;;21.50;90.90;;;;;;5072333;28;19908;-72
2022/09/10 01:36:08;;;;;;;;;;;21.40;90.60;;;;;;5072595;28;19908;-72
2022/09/10 01:38:37;;;;;;;;;;;21.50;90.50;;;;;;5071644;28;19913;-70
2022/09/10 01:41:04;;;;;;;;;;;21.60;90.10;;;;;;5072490;28;19908;-72
2022/09/10 01:43:30;;;;;;;;;;;21.50;90.10;;;;;;5070627;28;19913;-72
2022/09/10 01:46:04;;;;;;;;;;;21.40;90.10;;;;;;5071961;28;20011;-74
2022/09/10 01:48:31;;;;;;;;;;;21.40;89.30;;;;;;5071943;28;19916;-74
2022/09/10 01:51:28;;;;;;;;;;;21.30;89.20;;;;;;5072117;28;19908;-73
2022/09/10 01:54:01;;;;;;;;;;;21.50;89.90;;;;;;5066417;28;19938;-73
2022/09/10 01:56:39;;;;;;;;;;;21.70;87.90;;;;;;5071911;28;20337;-76
2022/09/10 01:59:18;;;;;;;;;;;21.80;87.70;;;;;;5071316;28;19916;-71
2022/09/10 02:01:50;;;;;;;;;;;22.10;87.60;;;;;;5072121;28;19919;-75
2022/09/10 02:04:17;;;;;;;;;;;22.30;86.70;;;;;;5072499;28;20011;-69
2022/09/10 02:06:46;;;;;;;;;;;22.50;85.50;;;;;;5072470;28;19912;-73
2022/09/10 02:09:14;;;;;;;;;;;22.70;85.10;;;;;;5072996;28;20007;-73
2022/09/10 02:11:58;;;;;;;;;;;22.80;84.10;;;;;;5072845;28;19966;-73
2022/09/10 02:14:25;;;;;;;;;;;22.60;84.60;;;;;;5073115;28;20257;-74
2022/09/10 02:16:58;;;;;;;;;;;22.40;83.90;;;;;;5071472;28;19966;-74
2022/09/10 02:19:26;;;;;;;;;;;22.10;82.90;;;;;;5070818;28;19908;-73
2022/09/10 02:21:56;;;;;;;;;;;22.00;83.40;;;;;;5069899;28;19912;-72
2022/09/10 02:24:22;;;;;;;;;;;21.90;84.10;;;;;;5070301;28;19909;-72
2022/09/10 02:26:49;;;;;;;;;;;22.10;83.40;;;;;;5069373;28;19912;-72
2022/09/10 02:29:16;;;;;;;;;;;22.40;82.20;;;;;;5069059;28;19916;-71
2022/09/10 02:31:43;;;;;;;;;;;22.60;81.90;;;;;;5069098;28;20373;-70
2022/09/10 02:34:10;;;;;;;;;;;22.70;81.60;;;;;;5070464;28;19924;-70
2022/09/10 02:36:36;;;;;;;;;;;22.90;81.60;;;;;;5070934;28;19996;-74
2022/09/10 02:39:04;;;;;;;;;;;23.20;81.10;;;;;;5071004;28;19962;-70
2022/09/10 02:41:32;;;;;;;;;;;23.30;80.20;;;;;;5071557;28;19909;-71
2022/09/10 02:44:00;;;;;;;;;;;23.30;79.30;;;;;;5071721;28;20046;-71
2022/09/10 02:46:27;;;;;;;;;;;23.20;79.70;;;;;;5071924;28;19912;-72
2022/09/10 02:48:54;;;;;;;;;;;23.20;79.30;;;;;;5070960;28;20054;-69
2022/09/10 02:51:21;;;;;;;;;;;23.90;79.80;;;;;;5071430;28;20391;-71
2022/09/10 02:53:48;;;;;;;;;;;24.70;78.20;;;;;;5071346;28;19912;-72
2022/09/10 02:56:16;;;;;;;;;;;25.30;75.30;;;;;;5071685;28;19909;-73
2022/09/10 02:58:44;;;;;;;;;;;25.70;74.00;;;;;;5071622;28;19915;-71
2022/09/10 03:01:15;;;;;;;;;;;25.50;74.10;;;;;;5071447;28;19912;-72
2022/09/10 03:03:42;;;;;;;;;;;24.90;73.60;;;;;;5071602;28;19916;-72
2022/09/10 03:06:09;;;;;;;;;;;24.40;75.00;;;;;;5062238;28;19939;-70
2022/09/10 03:08:35;;;;;;;;;;;23.90;75.60;;;;;;5060642;28;19917;-73
2022/09/10 03:11:03;;;;;;;;;;;23.50;76.00;;;;;;5060497;28;20057;-71
2022/09/10 03:13:30;;;;;;;;;;;23.70;76.30;;;;;;5058251;28;19991;-73
2022/09/10 03:16:02;;;;;;;;;;;24.60;74.20;;;;;;5058070;28;19954;-72
2022/09/10 03:18:30;;;;;;;;;;;25.60;73.00;;;;;;5059114;28;19994;-73
2022/09/10 03:21:07;;;;;;;;;;;26.40;71.70;;;;;;5051204;28;19967;-73
2022/09/10 03:23:34;;;;;;;;;;;27.10;70.10;;;;;;5051062;28;19916;-72
2022/09/10 03:26:01;;;;;;;;;;;27.60;68.10;;;;;;5049085;28;19981;-72
2022/09/10 03:28:28;;;;;;;;;;;27.80;68.20;;;;;;5066196;28;20300;-70
2022/09/10 03:30:55;;;;;;;;;;;28.60;66.40;;;;;;5059136;28;19917;-71
2022/09/10 03:33:22;;;;;;;;;;;29.30;65.50;;;;;;5049904;28;19913;-71
2022/09/10 03:35:48;;;;;;;;;;;29.70;63.60;;;;;;5049149;28;19917;-72
2022/09/10 03:38:15;;;;;;;;;;;29.10;60.60;;;;;;5053822;28;19924;-71
2022/09/10 03:40:41;;;;;;;;;;;28.40;63.30;;;;;;5063656;28;19912;-71
2022/09/10 03:43:08;;;;;;;;;;;28.10;64.00;;;;;;5067425;28;20965;-71
2022/09/10 03:45:35;;;;;;;;;;;28.30;63.30;;;;;;5059086;28;19920;-69
2022/09/10 03:48:02;;;;;;;;;;;28.30;61.40;;;;;;5048947;28;20012;-72
2022/09/10 03:50:29;;;;;;;;;;;27.70;61.50;;;;;;5051960;28;19921;-71
2022/09/10 03:52:56;;;;;;;;;;;27.50;62.60;;;;;;5057282;28;20080;-73
2022/09/10 03:55:23;;;;;;;;;;;26.80;63.70;;;;;;5055500;28;19909;-71
2022/09/10 03:57:49;;;;;;;;;;;26.20;65.60;;;;;;5057315;28;19919;-71
2022/09/10 04:00:16;;;;;;;;;;;26.40;66.70;;;;;;5059504;28;19921;-72
2022/09/10 04:02:45;;;;;;;;;;;27.10;64.60;;;;;;5062366;28;20366;-71
2022/09/10 04:05:12;;;;;;;;;;;27.80;64.40;;;;;;5054854;28;19920;-72
2022/09/10 04:07:38;;;;;;;;;;;28.00;63.60;;;;;;5051483;28;19920;-71
2022/09/10 04:10:05;;;;;;;;;;;27.60;64.20;;;;;;5053074;28;20345;-72
2022/09/10 04:12:32;;;;;;;;;;;27.70;63.80;;;;;;5067283;28;19912;-73
2022/09/10 04:15:00;;;;;;;;;;;28.50;64.70;;;;;;5058765;28;19958;-70
2022/09/10 04:17:27;;;;;;;;;;;28.90;62.70;;;;;;5058032;28;19962;-71
2022/09/10 04:19:53;;;;;;;;;;;29.20;61.50;;;;;;5058457;28;19985;-73
2022/09/10 04:22:21;;;;;;;;;;;29.20;61.20;;;;;;5059418;28;19909;-71
2022/09/10 04:24:48;;;;;;;;;;;29.50;62.30;;;;;;5062292;28;19912;-71
2022/09/10 04:27:15;;;;;;;;;;;29.60;60.90;;;;;;5065774;28;19913;-71
2022/09/10 04:29:42;;;;;;;;;;;29.70;60.40;;;;;;5061990;28;19921;-72
2022/09/10 04:32:08;;;;;;;;;;;29.40;61.00;;;;;;5057700;28;20045;-71
2022/09/10 04:34:35;;;;;;;;;;;28.90;61.20;;;;;;5057938;28;19920;-71
2022/09/10 04:37:02;;;;;;;;;;;28.40;62.60;;;;;;5061290;28;19999;-70
2022/09/10 04:39:28;;;;;;;;;;;28.30;61.50;;;;;;5064593;28;19917;-71
2022/09/10 04:41:55;;;;;;;;;;;27.90;62.60;;;;;;5061883;28;19940;-71
2022/09/10 04:44:22;;;;;;;;;;;28.00;62.50;;;;;;5062819;28;19930;-72
2022/09/10 04:46:48;;;;;;;;;;;28.20;62.80;;;;;;5065656;28;19919;-72
2022/09/10 04:49:15;;;;;;;;;;;28.60;63.00;;;;;;5061664;28;19927;-73
2022/09/10 04:51:41;;;;;;;;;;;29.10;61.00;;;;;;5062413;28;19927;-72
2022/09/10 04:54:12;;;;;;;;;;;29.00;61.40;;;;;;5064231;28;19913;-73
2022/09/10 04:56:38;;;;;;;;;;;28.60;61.50;;;;;;5067997;28;19948;-72
2022/09/10 04:59:05;;;;;;;;;;;27.80;62.10;;;;;;5064341;28;19978;-72
2022/09/10 05:01:32;;;;;;;;;;;26.90;62.70;;;;;;5063750;28;20258;-71
2022/09/10 05:03:59;;;;;;;;;;;26.60;62.70;;;;;;5061893;28;19909;-71
2022/09/10 05:06:25;;;;;;;;;;;26.30;64.00;;;;;;5062352;28;19909;-70
2022/09/10 05:08:53;;;;;;;;;;;26.20;64.70;;;;;;5062050;28;19916;-69
2022/09/10 05:11:20;;;;;;;;;;;26.30;64.40;;;;;;5063356;28;20330;-69
2022/09/10 05:13:47;;;;;;;;;;;26.00;63.60;;;;;;5061514;28;20004;-69
2022/09/10 05:16:14;;;;;;;;;;;25.70;64.10;;;;;;5061617;28;20435;-70
2022/09/10 05:18:41;;;;;;;;;;;25.50;64.40;;;;;;5062935;28;19982;-70
2022/09/10 05:21:07;;;;;;;;;;;25.40;64.60;;;;;;5061492;28;19959;-72
2022/09/10 05:23:35;;;;;;;;;;;25.50;65.50;;;;;;5065788;28;19963;-72
2022/09/10 05:26:02;;;;;;;;;;;25.50;64.70;;;;;;5064625;28;19913;-71
2022/09/10 05:28:29;;;;;;;;;;;25.30;64.80;;;;;;5061446;28;20438;-73
2022/09/10 05:30:56;;;;;;;;;;;25.20;66.30;;;;;;5064523;28;20253;-70
2022/09/10 05:33:23;;;;;;;;;;;25.30;68.90;;;;;;5060478;28;19946;-71
2022/09/10 05:35:52;;;;;;;;;;;26.00;70.30;;;;;;5060535;28;19912;-70
2022/09/10 05:38:19;;;;;;;;;;;26.80;70.70;;;;;;5061876;28;19943;-70
2022/09/10 05:40:46;;;;;;;;;;;27.60;70.50;;;;;;5063031;28;19999;-70
2022/09/10 05:43:12;;;;;;;;;;;28.40;69.00;;;;;;5061611;28;19935;-72
2022/09/10 05:45:39;;;;;;;;;;;29.00;67.40;;;;;;5061646;28;19916;-69
2022/09/10 05:48:05;;;;;;;;;;;28.80;66.70;;;;;;5061823;28;19927;-72
2022/09/10 05:50:32;;;;;;;;;;;28.10;66.10;;;;;;5043272;28;20031;-70
2022/09/10 05:53:00;;;;;;;;;;;27.70;65.40;;;;;;5061545;28;19909;-71
2022/09/10 05:55:26;;;;;;;;;;;27.60;66.00;;;;;;5066097;28;19908;-72
2022/09/10 05:57:53;;;;;;;;;;;27.50;63.70;;;;;;5072968;28;19916;-74
2022/09/10 06:00:19;;;;;;;;;;;27.20;63.70;;;;;;5073024;28;19913;-72
2022/09/10 06:02:46;;;;;;;;;;;26.90;64.30;;;;;;5067606;28;19971;-72
2022/09/10 06:05:14;;;;;;;;;;;26.70;65.70;;;;;;5069677;28;19918;-71
2022/09/10 06:07:40;;;;;;;;;;;27.00;65.10;;;;;;5064406;28;19917;-74
2022/09/10 06:10:07;;;;;;;;;;;26.70;63.60;;;;;;5061389;28;19912;-71
2022/09/10 06:12:34;;;;;;;;;;;26.70;64.50;;;;;;5060172;28;19920;-71
2022/09/10 06:15:02;;;;;;;;;;;27.10;64.30;;;;;;5062358;28;20025;-71
2022/09/10 06:17:29;;;;;;;;;;;27.80;63.30;;;;;;5059064;28;20003;-74
2022/09/10 06:19:55;;;;;;;;;;;28.50;62.50;;;;;;5058248;28;19923;-72
2022/09/10 06:22:22;;;;;;;;;;;29.20;60.90;;;;;;5059597;28;19943;-73
2022/09/10 06:24:49;;;;;;;;;;;29.50;59.70;;;;;;5058456;28;19909;-71
2022/09/10 06:27:16;;;;;;;;;;;29.80;60.40;;;;;;5059647;28;19915;-72
2022/09/10 06:29:43;;;;;;;;;;;30.10;59.40;;;;;;5059409;28;19921;-72
2022/09/10 06:32:09;;;;;;;;;;;30.20;58.80;;;;;;5059814;28;19932;-72
2022/09/10 06:34:36;;;;;;;;;;;30.20;58.50;;;;;;5058458;28;19943;-72
2022/09/10 06:37:03;;;;;;;;;;;29.40;59.40;;;;;;5058958;28;19917;-73
2022/09/10 06:39:29;;;;;;;;;;;28.50;60.10;;;;;;5058368;28;19919;-73
2022/09/10 06:41:56;;;;;;;;;;;27.70;61.40;;;;;;5060011;28;19920;-73
2022/09/10 06:44:22;;;;;;;;;;;26.80;62.00;;;;;;5059054;28;19921;-70
2022/09/10 06:46:49;;;;;;;;;;;26.10;64.90;;;;;;5058469;28;19948;-72
2022/09/10 06:49:16;;;;;;;;;;;25.70;64.80;;;;;;5058381;28;20352;-69
2022/09/10 06:51:42;;;;;;;;;;;25.50;65.70;;;;;;5061010;28;19916;-72
2022/09/10 06:54:09;;;;;;;;;;;25.50;66.50;;;;;;5060392;28;20386;-71
2022/09/10 06:56:35;;;;;;;;;;;25.20;66.90;;;;;;5054542;28;19928;-72
2022/09/10 06:59:02;;;;;;;;;;;25.10;67.70;;;;;;5051215;28;20016;-72
2022/09/10 07:01:29;;;;;;;;;;;25.00;68.50;;;;;;5064654;28;19919;-70
2022/09/10 07:03:56;;;;;;;;;;;24.70;67.90;;;;;;5066808;28;19916;-70
2022/09/10 07:06:23;;;;;;;;;;;24.40;68.70;;;;;;5066483;28;20434;-72
2022/09/10 07:08:54;;;;;;;;;;;24.00;69.80;;;;;;5065037;28;20452;-70
2022/09/10 07:11:20;;;;;;;;;;;23.80;70.50;;;;;;5056166;28;20000;-69
2022/09/10 07:13:49;;;;;;;;;;;23.60;71.10;;;;;;5050169;28;19916;-70
2022/09/10 07:16:19;;;;;;;;;;;23.30;71.60;;;;;;5050427;28;19909;-69
2022/09/10 07:18:49;;;;;;;;;;;23.20;72.10;;;;;;5034694;28;21579;-70
2022/09/10 07:21:16;;;;;;;;;;;23.00;72.60;;;;;;5050474;28;19922;-70
2022/09/10 07:23:44;;;;;;;;;;;22.80;73.40;;;;;;5050547;28;19916;-69
2022/09/10 07:26:11;;;;;;;;;;;22.60;73.80;;;;;;5058462;28;19917;-68
2022/09/10 07:28:38;;;;;;;;;;;22.50;74.10;;;;;;5064964;28;19940;-67
2022/09/10 07:31:21;;;;;;;;;;;22.30;74.40;;;;;;5057676;28;20301;-72
2022/09/10 07:33:48;;;;;;;;;;;22.10;73.90;;;;;;5057844;28;19923;-70
2022/09/10 07:36:15;;;;;;;;;;;22.00;74.10;;;;;;5058607;28;19919;-70
2022/09/10 07:38:42;;;;;;;;;;;21.80;74.70;;;;;;5058851;28;19920;-69
2022/09/10 07:41:10;;;;;;;;;;;21.70;79.30;;;;;;5064620;28;20422;-68
2022/09/10 07:43:40;;;;;;;;;;;21.60;83.90;;;;;;5059755;28;19909;-69
2022/09/10 07:46:07;;;;;;;;;;;21.40;86.90;;;;;;5061300;28;19934;-68
2022/09/10 07:48:35;;;;;;;;;;;21.20;88.50;;;;;;5059236;28;19921;-72
2022/09/10 07:51:06;;;;;;;;;;;21.00;89.70;;;;;;5059154;28;20580;-73
2022/09/10 07:53:34;;;;;;;;;;;20.80;90.20;;;;;;5058373;28;20015;-70
2022/09/10 07:56:02;;;;;;;;;;;20.70;90.80;;;;;;5059804;28;20007;-72
2022/09/10 07:58:30;;;;;;;;;;;20.60;91.20;;;;;;5059699;28;19969;-70
2022/09/10 08:00:58;;;;;;;;;;;20.40;90.90;;;;;;5061818;28;19966;-70
2022/09/10 08:03:29;;;;;;;;;;;20.20;91.20;;;;;;5057491;28;19909;-72
2022/09/10 08:05:59;;;;;;;;;;;20.20;91.50;;;;;;5057107;28;20011;-70
2022/09/10 08:08:35;;;;;;;;;;;20.10;91.60;;;;;;5059872;28;20027;-70
2022/09/10 08:11:10;;;;;;;;;;;20.00;91.80;;;;;;5060850;28;19963;-70
2022/09/10 08:13:40;;;;;;;;;;;20.00;92.10;;;;;;5058121;28;19917;-70
2022/09/10 08:16:11;;;;;;;;;;;20.00;92.40;;;;;;5059962;28;20392;-71
2022/09/10 08:18:37;;;;;;;;;;;19.90;92.10;;;;;;5055835;28;19921;-68
2022/09/10 08:21:05;;;;;;;;;;;19.90;92.00;;;;;;5060885;28;19923;-71
2022/09/10 08:23:31;;;;;;;;;;;19.80;92.40;;;;;;5055800;28;19916;-71
2022/09/10 08:25:58;;;;;;;;;;;19.90;92.30;;;;;;5040111;28;19920;-69
2022/09/10 08:28:26;;;;;;;;;;;19.80;91.80;;;;;;5057533;28;19928;-68
2022/09/10 08:31:11;;;;;;;;;;;19.80;91.60;;;;;;5060126;28;19998;-69
2022/09/10 08:33:38;;;;;;;;;;;19.80;90.20;;;;;;5058720;28;20420;-70
2022/09/10 08:36:06;;;;;;;;;;;19.80;87.30;;;;;;5056922;28;19909;-68
2022/09/10 08:38:34;;;;;;;;;;;19.80;86.40;;;;;;5054046;28;19917;-70
2022/09/10 08:41:01;;;;;;;;;;;19.80;86.20;;;;;;5056843;28;19920;-69
2022/09/10 08:43:46;;;;;;;;;;;19.80;85.20;;;;;;5057692;28;19959;-69
2022/09/10 08:46:22;;;;;;;;;;;19.90;85.20;;;;;;5057215;28;19917;-69
2022/09/10 08:48:53;;;;;;;;;;;19.90;84.80;;;;;;5059075;28;19920;-70
2022/09/10 08:51:26;;;;;;;;;;;19.90;84.90;;;;;;5043924;28;19921;-70
2022/09/10 08:53:55;;;;;;;;;;;19.90;84.80;;;;;;5061523;28;19917;-69
2022/09/10 08:56:22;;;;;;;;;;;19.90;84.50;;;;;;5064591;28;19934;-70
2022/09/10 08:58:57;;;;;;;;;;;19.90;84.50;;;;;;5063886;28;19963;-70
2022/09/10 09:01:50;;;;;;;;;;;19.90;84.20;;;;;;5062596;28;20262;-70
2022/09/10 09:04:37;;;;;;;;;;;19.90;84.50;;;;;;5058814;28;19909;-68
2022/09/10 09:07:09;;;;;;;;;;;19.90;84.30;;;;;;5064157;28;19966;-68
2022/09/10 09:09:35;;;;;;;;;;;19.90;84.60;;;;;;5061243;28;19923;-68
2022/09/10 09:12:14;;;;;;;;;;;19.90;85.10;;;;;;5063209;28;19957;-69
2022/09/10 09:14:49;;;;;;;;;;;19.90;85.20;;;;;;5063693;28;19912;-69
2022/09/10 09:17:16;;;;;;;;;;;19.80;84.90;;;;;;5063600;28;20098;-69
2022/09/10 09:20:01;;;;;;;;;;;19.80;85.20;;;;;;5062966;28;20389;-69
2022/09/10 09:22:33;;;;;;;;;;;19.70;85.20;;;;;;5063022;28;19909;-70
2022/09/10 09:25:08;;;;;;;;;;;19.70;85.40;;;;;;5061056;28;19936;-69
2022/09/10 09:27:38;;;;;;;;;;;19.60;85.70;;;;;;5066605;28;20003;-68
2022/09/10 09:30:06;;;;;;;;;;;19.50;85.70;;;;;;5062548;28;19917;-72
2022/09/10 09:32:35;;;;;;;;;;;19.50;86.30;;;;;;5065244;28;19934;-71
2022/09/10 09:35:07;;;;;;;;;;;19.50;86.40;;;;;;5063001;28;19913;-74
2022/09/10 09:37:35;;;;;;;;;;;19.40;86.80;;;;;;5063236;28;19915;-69
2022/09/10 09:40:08;;;;;;;;;;;19.40;86.40;;;;;;5064184;28;19977;-72
2022/09/10 09:42:44;;;;;;;;;;;19.40;86.70;;;;;;5063439;28;20331;-69
2022/09/10 09:45:28;;;;;;;;;;;19.40;87.10;;;;;;5063072;28;19908;-70
2022/09/10 09:47:55;;;;;;;;;;;19.40;86.80;;;;;;5061109;28;19991;-70
2022/09/10 09:50:22;;;;;;;;;;;19.30;87.30;;;;;;5060563;28;19924;-70
2022/09/10 09:52:53;;;;;;;;;;;19.30;87.30;;;;;;5061931;28;19917;-69
2022/09/10 09:55:27;;;;;;;;;;;19.20;87.40;;;;;;5062783;28;19947;-73
2022/09/10 09:58:12;;;;;;;;;;;19.20;88.10;;;;;;5062021;28;20282;-71
2022/09/10 10:00:38;;;;;;;;;;;19.10;88.00;;;;;;5062168;28;19917;-71
2022/09/10 10:03:23;;;;;;;;;;;19.10;87.80;;;;;;5063228;28;19919;-69
2022/09/10 10:05:50;;;;;;;;;;;19.10;88.00;;;;;;5061381;28;19941;-70
2022/09/10 10:08:28;;;;;;;;;;;19.10;88.00;;;;;;5062523;28;19982;-70
2022/09/10 10:10:56;;;;;;;;;;;19.00;88.10;;;;;;5062329;28;19908;-73
2022/09/10 10:13:23;;;;;;;;;;;19.00;88.10;;;;;;5061752;28;20536;-70
2022/09/10 10:15:50;;;;;;;;;;;19.00;88.00;;;;;;5043290;28;19912;-69
2022/09/10 10:18:23;;;;;;;;;;;18.90;87.80;;;;;;5060769;28;19974;-71
2022/09/10 10:21:04;;;;;;;;;;;18.90;87.70;;;;;;5062843;28;19991;-73
2022/09/10 10:23:38;;;;;;;;;;;18.80;87.80;;;;;;5061467;28;19913;-71
2022/09/10 10:26:22;;;;;;;;;;;18.80;87.60;;;;;;5061871;28;19979;-73
2022/09/10 10:28:55;;;;;;;;;;;18.70;87.80;;;;;;5062568;28;19916;-71
2022/09/10 10:31:22;;;;;;;;;;;18.80;88.00;;;;;;5062153;28;19954;-73
2022/09/10 10:34:07;;;;;;;;;;;18.70;87.50;;;;;;5060894;28;19909;-71
2022/09/10 10:36:40;;;;;;;;;;;18.80;87.70;;;;;;5061921;28;19904;-72
2022/09/10 10:39:11;;;;;;;;;;;18.70;87.60;;;;;;5062170;28;19913;-72
2022/09/10 10:41:41;;;;;;;;;;;18.70;87.80;;;;;;5060259;28;19919;-72
2022/09/10 10:44:26;;;;;;;;;;;18.70;87.80;;;;;;5062007;28;19999;-70
2022/09/10 10:46:53;;;;;;;;;;;18.70;88.10;;;;;;5061616;28;20394;-71
2022/09/10 10:49:32;;;;;;;;;;;18.60;88.30;;;;;;5060976;28;20410;-71
2022/09/10 10:51:58;;;;;;;;;;;18.50;88.70;;;;;;5061825;28;19960;-72
2022/09/10 10:54:27;;;;;;;;;;;18.50;89.20;;;;;;5064204;28;20276;-70
2022/09/10 10:56:58;;;;;;;;;;;18.40;89.10;;;;;;5052208;28;19921;-71
2022/09/10 10:59:43;;;;;;;;;;;18.40;89.70;;;;;;5034373;28;19991;-72
2022/09/10 11:02:28;;;;;;;;;;;18.30;89.90;;;;;;5062027;28;19964;-72
2022/09/10 11:04:57;;;;;;;;;;;18.20;89.90;;;;;;5058735;28;19908;-70
2022/09/10 11:07:38;;;;;;;;;;;18.20;90.30;;;;;;5066812;28;19913;-68
2022/09/10 11:10:05;;;;;;;;;;;18.20;90.50;;;;;;5061157;28;19928;-68
2022/09/10 11:12:51;;;;;;;;;;;18.10;90.60;;;;;;5059790;28;19917;-67
2022/09/10 11:15:32;;;;;;;;;;;18.00;90.90;;;;;;5061012;28;19913;-67
2022/09/10 11:17:58;;;;;;;;;;;18.00;91.10;;;;;;5061343;28;19927;-67
2022/09/10 11:20:31;;;;;;;;;;;17.90;91.70;;;;;;5061039;28;19913;-66
2022/09/10 11:23:13;;;;;;;;;;;17.80;91.90;;;;;;5065787;28;19909;-69
2022/09/10 11:26:03;;;;;;;;;;;17.80;92.10;;;;;;5051726;28;19909;-69
2022/09/10 11:28:35;;;;;;;;;;;17.70;92.20;;;;;;5051389;28;19917;-69
2022/09/10 11:31:08;;;;;;;;;;;17.70;92.30;;;;;;5051340;28;19916;-70
2022/09/10 11:33:38;;;;;;;;;;;17.60;92.50;;;;;;5051104;28;19986;-70
2022/09/10 11:36:11;;;;;;;;;;;17.60;92.60;;;;;;5044899;28;19966;-72
2022/09/10 11:38:44;;;;;;;;;;;17.60;92.60;;;;;;5061340;28;19978;-71
2022/09/10 11:41:16;;;;;;;;;;;17.60;92.50;;;;;;5053332;28;19995;-71
2022/09/10 11:43:43;;;;;;;;;;;17.60;92.70;;;;;;5062544;28;20011;-70
2022/09/10 11:46:14;;;;;;;;;;;17.60;92.70;;;;;;5059041;28;20289;-71
2022/09/10 11:49:02;;;;;;;;;;;17.60;92.80;;;;;;5059656;28;19927;-70
2022/09/10 11:51:33;;;;;;;;;;;17.60;92.80;;;;;;5061117;28;19913;-71
2022/09/10 11:54:01;;;;;;;;;;;17.70;92.80;;;;;;5062363;28;20661;-69
2022/09/10 11:56:45;;;;;;;;;;;17.70;92.80;;;;;;5059332;28;19953;-70
2022/09/10 11:59:15;;;;;;;;;;;17.70;92.90;;;;;;5061017;28;20042;-70
2022/09/10 12:02:01;;;;;;;;;;;17.70;92.80;;;;;;5059852;28;19909;-69
2022/09/10 12:04:43;;;;;;;;;;;17.70;92.80;;;;;;5060476;28;20281;-70
2022/09/10 12:07:16;;;;;;;;;;;17.70;92.80;;;;;;5060603;28;20288;-69
2022/09/10 12:10:09;;;;;;;;;;;17.70;92.80;;;;;;5059651;28;19924;-68
2022/09/10 12:12:43;;;;;;;;;;;17.80;92.80;;;;;;5049824;28;19955;-70
2022/09/10 12:15:14;;;;;;;;;;;17.80;92.70;;;;;;5050669;28;19916;-71
2022/09/10 12:17:43;;;;;;;;;;;17.70;92.80;;;;;;5050734;28;20385;-70
2022/09/10 12:20:21;;;;;;;;;;;17.80;92.70;;;;;;5050952;28;20117;-70
2022/09/10 12:22:51;;;;;;;;;;;17.70;92.50;;;;;;5055448;28;19935;-71
2022/09/10 12:25:18;;;;;;;;;;;17.70;92.50;;;;;;5075054;28;19961;-73
2022/09/10 12:27:46;;;;;;;;;;;17.60;92.60;;;;;;5074918;28;19920;-70
2022/09/10 12:30:33;;;;;;;;;;;17.60;92.70;;;;;;5053364;28;20347;-70
2022/09/10 12:33:20;;;;;;;;;;;17.60;92.80;;;;;;5047391;28;19935;-70
2022/09/10 12:35:48;;;;;;;;;;;17.60;92.80;;;;;;5043233;28;19920;-70
2022/09/10 12:38:33;;;;;;;;;;;17.60;93.00;;;;;;5074378;28;19970;-70
2022/09/10 12:41:03;;;;;;;;;;;17.50;93.10;;;;;;5064010;28;20357;-72
2022/09/10 12:43:39;;;;;;;;;;;17.50;93.20;;;;;;5054287;28;19923;-70
2022/09/10 12:46:08;;;;;;;;;;;17.50;93.20;;;;;;5066904;28;20319;-71
2022/09/10 12:48:58;;;;;;;;;;;17.50;93.30;;;;;;5074367;28;20340;-74
2022/09/10 12:51:37;;;;;;;;;;;17.50;93.60;;;;;;5068613;28;19914;-70
2022/09/10 12:54:03;;;;;;;;;;;17.40;93.60;;;;;;5056346;28;19912;-69
2022/09/10 12:56:56;;;;;;;;;;;17.40;93.40;;;;;;5074496;28;20284;-69
2022/09/10 12:59:36;;;;;;;;;;;17.40;93.70;;;;;;5072053;28;19965;-68
2022/09/10 13:02:17;;;;;;;;;;;17.30;93.30;;;;;;5074337;28;19908;-68
2022/09/10 13:04:46;;;;;;;;;;;17.30;93.50;;;;;;5073820;28;19917;-69
2022/09/10 13:07:30;;;;;;;;;;;17.30;93.60;;;;;;5073444;28;20293;-69
2022/09/10 13:10:13;;;;;;;;;;;17.30;93.60;;;;;;5072185;28;19920;-70
2022/09/10 13:12:41;;;;;;;;;;;17.30;93.80;;;;;;5072928;28;19923;-70
2022/09/10 13:15:37;;;;;;;;;;;17.20;93.60;;;;;;5073860;28;20011;-71
2022/09/10 13:18:33;;;;;;;;;;;17.20;94.20;;;;;;5056802;28;20361;-71
2022/09/10 13:21:19;;;;;;;;;;;17.20;94.10;;;;;;5065037;28;20011;-70
2022/09/10 13:23:47;;;;;;;;;;;17.20;94.00;;;;;;5073765;28;19915;-69
2022/09/10 13:26:38;;;;;;;;;;;17.20;94.10;;;;;;5073838;28;19977;-70
2022/09/10 13:29:10;;;;;;;;;;;17.10;94.30;;;;;;5073770;28;19932;-69
2022/09/10 13:31:43;;;;;;;;;;;17.10;94.20;;;;;;5073553;28;20354;-70
2022/09/10 13:34:10;;;;;;;;;;;17.10;94.40;;;;;;5072216;28;20127;-69
2022/09/10 13:36:36;;;;;;;;;;;17.20;94.40;;;;;;5073565;28;19921;-69
2022/09/10 13:39:41;;;;;;;;;;;17.10;94.50;;;;;;5073976;28;19996;-69
2022/09/10 13:42:17;;;;;;;;;;;17.10;94.40;;;;;;4992139;28;20008;-69
2022/09/10 13:44:52;;;;;;;;;;;17.00;94.50;;;;;;4992074;28;19920;-70
2022/09/10 13:47:21;;;;;;;;;;;17.00;94.50;;;;;;5040869;28;19908;-68
2022/09/10 13:49:50;;;;;;;;;;;17.00;94.70;;;;;;5072543;28;20280;-70
2022/09/10 13:52:17;;;;;;;;;;;17.00;94.70;;;;;;5073796;28;20369;-70
2022/09/10 13:54:50;;;;;;;;;;;17.00;94.60;;;;;;5072901;28;19913;-69
2022/09/10 13:57:28;;;;;;;;;;;17.00;94.70;;;;;;5073225;28;19908;-69
2022/09/10 14:00:04;;;;;;;;;;;16.90;94.70;;;;;;5072670;28;19908;-69
2022/09/10 14:02:44;;;;;;;;;;;16.90;94.80;;;;;;5072409;28;19917;-69
2022/09/10 14:05:27;;;;;;;;;;;16.90;94.80;;;;;;5072994;28;19909;-69
2022/09/10 14:07:55;;;;;;;;;;;16.90;94.90;;;;;;5072516;28;19913;-68
2022/09/10 14:10:22;;;;;;;;;;;16.90;94.80;;;;;;5054261;28;20253;-69
2022/09/10 14:12:49;;;;;;;;;;;16.90;95.00;;;;;;5072873;28;19983;-69
2022/09/10 14:15:17;;;;;;;;;;;17.00;95.20;;;;;;5073236;28;20383;-69
2022/09/10 14:17:46;;;;;;;;;;;16.90;95.10;;;;;;5072574;28;19938;-69
2022/09/10 14:20:25;;;;;;;;;;;17.00;95.10;;;;;;5072449;28;19908;-70
2022/09/10 14:22:58;;;;;;;;;;;16.90;95.30;;;;;;5072738;28;19908;-69
2022/09/10 14:25:30;;;;;;;;;;;16.90;94.90;;;;;;5072848;28;19909;-70
2022/09/10 14:28:14;;;;;;;;;;;16.90;95.00;;;;;;5072315;28;19913;-69
2022/09/10 14:30:45;;;;;;;;;;;16.80;94.90;;;;;;5067130;28;19955;-68
2022/09/10 14:33:24;;;;;;;;;;;16.80;94.90;;;;;;5072358;28;20238;-69
2022/09/10 14:35:51;;;;;;;;;;;16.70;94.90;;;;;;5072475;28;19939;-69
2022/09/10 14:38:35;;;;;;;;;;;16.70;94.90;;;;;;5071695;28;19935;-69